Terminal Aerodrome Forecast
Issued by NWS

Home | Current Version | Previous Version | Text Only | Print | Product List | Glossary On
Versions: 1 2 3 4 5 6 7 8 9 10 11 12 13 14 15 16 17 18 19 20 21 22 23 24 25 26 27 28 29 30 31 32 33
000
FTUS46 KLOX 251700 RRA
TAFLAX
TAF
KLAX 251741Z 2518/2624 36007G22KT P6SM FEW060 SCT090
     FM252100 31012KT P6SM SKC
     FM260400 35008KT P6SM SKC
     FM261600 02006KT P6SM SKC
     FM262000 26006KT P6SM SKC=

USA.gov is the U.S. government's official web portal to all federal, state and local government web resources and services.